sensor_id;sensor_type;location;lat;lon;timestamp;temperature;humidity
25138;DHT22;13112;50.986;4.354;2022-07-29T00:00:38;20.10;99.90
25138;DHT22;13112;50.986;4.354;2022-07-29T00:03:04;20.00;99.90
25138;DHT22;13112;50.986;4.354;2022-07-29T00:05:29;20.00;99.90
25138;DHT22;13112;50.986;4.354;2022-07-29T00:07:55;20.10;99.90
25138;DHT22;13112;50.986;4.354;2022-07-29T00:10:21;20.10;99.90
25138;DHT22;13112;50.986;4.354;2022-07-29T00:12:47;20.00;99.90
25138;DHT22;13112;50.986;4.354;2022-07-29T00:15:12;20.00;99.90
25138;DHT22;13112;50.986;4.354;2022-07-29T00:17:38;20.10;99.90
25138;DHT22;13112;50.986;4.354;2022-07-29T00:20:05;20.10;99.90
25138;DHT22;13112;50.986;4.354;2022-07-29T00:22:30;20.00;99.90
25138;DHT22;13112;50.986;4.354;2022-07-29T00:24:56;20.00;99.90
25138;DHT22;13112;50.986;4.354;2022-07-29T00:27:22;20.00;99.90
25138;DHT22;13112;50.986;4.354;2022-07-29T00:29:47;20.00;99.90
25138;DHT22;13112;50.986;4.354;2022-07-29T00:32:13;20.00;99.90
25138;DHT22;13112;50.986;4.354;2022-07-29T00:34:39;20.00;99.90
25138;DHT22;13112;50.986;4.354;2022-07-29T00:37:23;19.90;99.90
25138;DHT22;13112;50.986;4.354;2022-07-29T00:39:49;19.90;99.90
25138;DHT22;13112;50.986;4.354;2022-07-29T00:42:15;19.90;99.90
25138;DHT22;13112;50.986;4.354;2022-07-29T00:44:43;19.90;99.90
25138;DHT22;13112;50.986;4.354;2022-07-29T00:47:10;19.80;99.90
25138;DHT22;13112;50.986;4.354;2022-07-29T00:49:36;19.70;99.90
25138;DHT22;13112;50.986;4.354;2022-07-29T00:52:05;19.80;99.90
25138;DHT22;13112;50.986;4.354;2022-07-29T00:54:31;19.70;99.90
25138;DHT22;13112;50.986;4.354;2022-07-29T00:56:58;19.80;99.90
25138;DHT22;13112;50.986;4.354;2022-07-29T00:59:27;19.70;99.90
25138;DHT22;13112;50.986;4.354;2022-07-29T01:01:54;19.70;99.90
25138;DHT22;13112;50.986;4.354;2022-07-29T01:04:20;19.70;99.90
25138;DHT22;13112;50.986;4.354;2022-07-29T01:06:48;19.70;99.90
25138;DHT22;13112;50.986;4.354;2022-07-29T01:09:15;19.70;99.90
25138;DHT22;13112;50.986;4.354;2022-07-29T01:11:42;19.70;99.90
25138;DHT22;13112;50.986;4.354;2022-07-29T01:14:09;19.70;99.90
25138;DHT22;13112;50.986;4.354;2022-07-29T01:17:10;19.60;99.90
25138;DHT22;13112;50.986;4.354;2022-07-29T01:19:58;19.70;99.90
25138;DHT22;13112;50.986;4.354;2022-07-29T01:22:31;19.60;99.90
25138;DHT22;13112;50.986;4.354;2022-07-29T01:25:17;19.60;99.90
25138;DHT22;13112;50.986;4.354;2022-07-29T01:28:16;19.50;99.90
25138;DHT22;13112;50.986;4.354;2022-07-29T01:30:44;19.50;99.90
25138;DHT22;13112;50.986;4.354;2022-07-29T01:33:14;19.50;99.90
25138;DHT22;13112;50.986;4.354;2022-07-29T01:36:10;19.40;99.90
25138;DHT22;13112;50.986;4.354;2022-07-29T01:38:39;19.40;99.90
25138;DHT22;13112;50.986;4.354;2022-07-29T01:41:09;19.30;99.90
25138;DHT22;13112;50.986;4.354;2022-07-29T01:43:49;19.30;99.90
25138;DHT22;13112;50.986;4.354;2022-07-29T01:46:21;19.20;99.90
25138;DHT22;13112;50.986;4.354;2022-07-29T01:48:57;19.20;99.90
25138;DHT22;13112;50.986;4.354;2022-07-29T01:51:54;19.20;99.90
25138;DHT22;13112;50.986;4.354;2022-07-29T01:54:42;19.10;99.90
25138;DHT22;13112;50.986;4.354;2022-07-29T01:57:12;19.00;99.90
25138;DHT22;13112;50.986;4.354;2022-07-29T01:59:39;18.90;99.90
25138;DHT22;13112;50.986;4.354;2022-07-29T02:02:07;18.80;99.90
25138;DHT22;13112;50.986;4.354;2022-07-29T02:04:35;18.70;99.90
25138;DHT22;13112;50.986;4.354;2022-07-29T02:07:05;18.60;99.90
25138;DHT22;13112;50.986;4.354;2022-07-29T02:09:33;18.60;99.90
25138;DHT22;13112;50.986;4.354;2022-07-29T02:12:00;18.50;99.90
25138;DHT22;13112;50.986;4.354;2022-07-29T02:14:33;18.40;99.90
25138;DHT22;13112;50.986;4.354;2022-07-29T02:17:00;18.30;99.90
25138;DHT22;13112;50.986;4.354;2022-07-29T02:19:27;18.30;99.90
25138;DHT22;13112;50.986;4.354;2022-07-29T02:22:02;18.30;99.90
25138;DHT22;13112;50.986;4.354;2022-07-29T02:24:28;18.30;99.90
25138;DHT22;13112;50.986;4.354;2022-07-29T02:26:56;18.20;99.90
25138;DHT22;13112;50.986;4.354;2022-07-29T02:29:25;18.10;99.90
25138;DHT22;13112;50.986;4.354;2022-07-29T02:31:52;18.00;99.90
25138;DHT22;13112;50.986;4.354;2022-07-29T02:34:20;17.90;99.90
25138;DHT22;13112;50.986;4.354;2022-07-29T02:36:46;18.00;99.90
25138;DHT22;13112;50.986;4.354;2022-07-29T02:39:13;17.90;99.90
25138;DHT22;13112;50.986;4.354;2022-07-29T02:41:48;17.90;99.90
25138;DHT22;13112;50.986;4.354;2022-07-29T02:44:19;17.90;99.90
25138;DHT22;13112;50.986;4.354;2022-07-29T02:46:59;17.80;99.90
25138;DHT22;13112;50.986;4.354;2022-07-29T02:49:37;17.80;99.90
25138;DHT22;13112;50.986;4.354;2022-07-29T02:52:18;17.80;99.90
25138;DHT22;13112;50.986;4.354;2022-07-29T02:57:36;17.80;99.90
25138;DHT22;13112;50.986;4.354;2022-07-29T03:00:06;17.80;99.90
25138;DHT22;13112;50.986;4.354;2022-07-29T03:02:35;17.80;99.90
25138;DHT22;13112;50.986;4.354;2022-07-29T03:05:03;17.70;99.90
25138;DHT22;13112;50.986;4.354;2022-07-29T03:07:29;17.70;99.90
25138;DHT22;13112;50.986;4.354;2022-07-29T03:09:56;17.60;99.90
25138;DHT22;13112;50.986;4.354;2022-07-29T03:12:22;17.50;99.90
25138;DHT22;13112;50.986;4.354;2022-07-29T03:14:48;17.50;99.90
25138;DHT22;13112;50.986;4.354;2022-07-29T03:17:15;17.40;99.90
25138;DHT22;13112;50.986;4.354;2022-07-29T03:19:42;17.40;99.90
25138;DHT22;13112;50.986;4.354;2022-07-29T03:22:08;17.40;99.90
25138;DHT22;13112;50.986;4.354;2022-07-29T03:24:36;17.30;99.90
25138;DHT22;13112;50.986;4.354;2022-07-29T03:27:03;17.20;99.90
25138;DHT22;13112;50.986;4.354;2022-07-29T03:29:29;17.20;99.90
25138;DHT22;13112;50.986;4.354;2022-07-29T03:31:55;17.10;99.90
25138;DHT22;13112;50.986;4.354;2022-07-29T03:34:21;17.10;99.90
25138;DHT22;13112;50.986;4.354;2022-07-29T03:36:47;17.00;99.90
25138;DHT22;13112;50.986;4.354;2022-07-29T03:39:17;17.00;99.90
25138;DHT22;13112;50.986;4.354;2022-07-29T03:41:44;17.00;99.90
25138;DHT22;13112;50.986;4.354;2022-07-29T03:44:11;17.00;99.90
25138;DHT22;13112;50.986;4.354;2022-07-29T03:46:38;16.90;99.90
25138;DHT22;13112;50.986;4.354;2022-07-29T03:49:05;16.90;99.90
25138;DHT22;13112;50.986;4.354;2022-07-29T03:51:33;16.90;99.90
25138;DHT22;13112;50.986;4.354;2022-07-29T03:54:02;16.90;99.90
25138;DHT22;13112;50.986;4.354;2022-07-29T03:56:28;16.90;99.90
25138;DHT22;13112;50.986;4.354;2022-07-29T03:58:55;16.80;99.90
25138;DHT22;13112;50.986;4.354;2022-07-29T04:01:22;16.70;99.90
25138;DHT22;13112;50.986;4.354;2022-07-29T04:03:49;16.70;99.90
25138;DHT22;13112;50.986;4.354;2022-07-29T04:06:15;16.60;99.90
25138;DHT22;13112;50.986;4.354;2022-07-29T04:08:40;16.70;99.90
25138;DHT22;13112;50.986;4.354;2022-07-29T04:11:06;16.70;99.90
25138;DHT22;13112;50.986;4.354;2022-07-29T04:13:32;16.60;99.90
25138;DHT22;13112;50.986;4.354;2022-07-29T04:15:59;16.60;99.90
25138;DHT22;13112;50.986;4.354;2022-07-29T04:18:24;16.50;99.90
25138;DHT22;13112;50.986;4.354;2022-07-29T04:20:50;16.60;99.90
25138;DHT22;13112;50.986;4.354;2022-07-29T04:23:16;16.50;99.90
25138;DHT22;13112;50.986;4.354;2022-07-29T04:25:42;16.40;99.90
25138;DHT22;13112;50.986;4.354;2022-07-29T04:28:09;16.40;99.90
25138;DHT22;13112;50.986;4.354;2022-07-29T04:30:36;16.40;99.90
25138;DHT22;13112;50.986;4.354;2022-07-29T04:33:03;16.40;99.90
25138;DHT22;13112;50.986;4.354;2022-07-29T04:35:29;16.40;99.90
25138;DHT22;13112;50.986;4.354;2022-07-29T04:37:55;16.20;99.90
25138;DHT22;13112;50.986;4.354;2022-07-29T04:40:21;16.20;99.90
25138;DHT22;13112;50.986;4.354;2022-07-29T04:42:47;16.30;99.90
25138;DHT22;13112;50.986;4.354;2022-07-29T04:45:12;16.40;99.90
25138;DHT22;13112;50.986;4.354;2022-07-29T04:47:38;16.50;99.90
25138;DHT22;13112;50.986;4.354;2022-07-29T04:50:04;16.60;99.90
25138;DHT22;13112;50.986;4.354;2022-07-29T04:52:32;16.50;99.90
25138;DHT22;13112;50.986;4.354;2022-07-29T04:54:58;16.50;99.90
25138;DHT22;13112;50.986;4.354;2022-07-29T04:57:23;16.50;99.90
25138;DHT22;13112;50.986;4.354;2022-07-29T04:59:49;16.50;99.90
25138;DHT22;13112;50.986;4.354;2022-07-29T05:02:15;16.60;99.90
25138;DHT22;13112;50.986;4.354;2022-07-29T05:04:40;16.70;99.90
25138;DHT22;13112;50.986;4.354;2022-07-29T05:07:06;16.70;99.90
25138;DHT22;13112;50.986;4.354;2022-07-29T05:09:32;16.80;99.90
25138;DHT22;13112;50.986;4.354;2022-07-29T05:11:58;16.80;99.90
25138;DHT22;13112;50.986;4.354;2022-07-29T05:14:23;16.90;99.90
25138;DHT22;13112;50.986;4.354;2022-07-29T05:16:49;16.80;99.90
25138;DHT22;13112;50.986;4.354;2022-07-29T05:19:17;16.60;99.90
25138;DHT22;13112;50.986;4.354;2022-07-29T05:21:44;16.50;99.90
25138;DHT22;13112;50.986;4.354;2022-07-29T05:24:09;16.50;99.90
25138;DHT22;13112;50.986;4.354;2022-07-29T05:26:35;16.70;99.90
25138;DHT22;13112;50.986;4.354;2022-07-29T05:29:01;16.90;99.90
25138;DHT22;13112;50.986;4.354;2022-07-29T05:31:26;17.20;99.90
25138;DHT22;13112;50.986;4.354;2022-07-29T05:33:52;17.40;99.90
25138;DHT22;13112;50.986;4.354;2022-07-29T05:36:18;17.60;99.90
25138;DHT22;13112;50.986;4.354;2022-07-29T05:38:44;17.80;99.90
25138;DHT22;13112;50.986;4.354;2022-07-29T05:41:10;18.00;99.90
25138;DHT22;13112;50.986;4.354;2022-07-29T05:43:35;18.10;99.90
25138;DHT22;13112;50.986;4.354;2022-07-29T05:46:01;18.40;99.90
25138;DHT22;13112;50.986;4.354;2022-07-29T05:48:27;18.60;99.90
25138;DHT22;13112;50.986;4.354;2022-07-29T05:50:53;18.90;99.90
25138;DHT22;13112;50.986;4.354;2022-07-29T05:53:18;19.20;99.90
25138;DHT22;13112;50.986;4.354;2022-07-29T05:55:44;19.40;99.90
25138;DHT22;13112;50.986;4.354;2022-07-29T05:58:10;19.50;99.90
25138;DHT22;13112;50.986;4.354;2022-07-29T06:00:35;19.60;99.90
25138;DHT22;13112;50.986;4.354;2022-07-29T06:03:04;19.60;99.90
25138;DHT22;13112;50.986;4.354;2022-07-29T06:05:32;19.60;99.90
25138;DHT22;13112;50.986;4.354;2022-07-29T06:07:58;19.70;99.90
25138;DHT22;13112;50.986;4.354;2022-07-29T06:10:23;19.60;99.90
25138;DHT22;13112;50.986;4.354;2022-07-29T06:12:50;19.60;99.90
25138;DHT22;13112;50.986;4.354;2022-07-29T06:15:15;19.60;99.90
25138;DHT22;13112;50.986;4.354;2022-07-29T06:17:41;19.90;99.90
25138;DHT22;13112;50.986;4.354;2022-07-29T06:20:07;20.10;99.90
25138;DHT22;13112;50.986;4.354;2022-07-29T06:22:32;20.30;99.90
25138;DHT22;13112;50.986;4.354;2022-07-29T06:24:58;21.10;99.90
25138;DHT22;13112;50.986;4.354;2022-07-29T06:27:24;22.10;99.90
25138;DHT22;13112;50.986;4.354;2022-07-29T06:29:49;22.90;99.90
25138;DHT22;13112;50.986;4.354;2022-07-29T06:32:15;23.70;99.90
25138;DHT22;13112;50.986;4.354;2022-07-29T06:34:40;24.20;99.90
25138;DHT22;13112;50.986;4.354;2022-07-29T06:37:09;24.60;99.90
25138;DHT22;13112;50.986;4.354;2022-07-29T06:39:38;24.90;99.90
25138;DHT22;13112;50.986;4.354;2022-07-29T06:42:04;25.50;99.90
25138;DHT22;13112;50.986;4.354;2022-07-29T06:44:30;25.50;99.90
25138;DHT22;13112;50.986;4.354;2022-07-29T06:46:56;26.30;99.90
25138;DHT22;13112;50.986;4.354;2022-07-29T06:49:22;26.90;99.20
25138;DHT22;13112;50.986;4.354;2022-07-29T06:51:49;27.30;98.60
25138;DHT22;13112;50.986;4.354;2022-07-29T06:54:15;28.00;97.40
25138;DHT22;13112;50.986;4.354;2022-07-29T06:56:41;28.20;96.30
25138;DHT22;13112;50.986;4.354;2022-07-29T06:59:09;28.90;95.00
25138;DHT22;13112;50.986;4.354;2022-07-29T07:01:36;29.20;94.70
25138;DHT22;13112;50.986;4.354;2022-07-29T07:04:02;30.10;93.60
25138;DHT22;13112;50.986;4.354;2022-07-29T07:06:28;30.50;92.10
25138;DHT22;13112;50.986;4.354;2022-07-29T07:08:53;31.30;91.20
25138;DHT22;13112;50.986;4.354;2022-07-29T07:11:19;31.60;90.20
25138;DHT22;13112;50.986;4.354;2022-07-29T07:13:45;31.40;90.20
25138;DHT22;13112;50.986;4.354;2022-07-29T07:16:10;31.10;89.30
25138;DHT22;13112;50.986;4.354;2022-07-29T07:18:36;30.40;90.10
25138;DHT22;13112;50.986;4.354;2022-07-29T07:21:02;29.80;90.20
25138;DHT22;13112;50.986;4.354;2022-07-29T07:23:27;28.70;91.10
25138;DHT22;13112;50.986;4.354;2022-07-29T07:25:53;28.80;92.10
25138;DHT22;13112;50.986;4.354;2022-07-29T07:28:19;29.50;91.50
25138;DHT22;13112;50.986;4.354;2022-07-29T07:30:45;29.90;90.90
25138;DHT22;13112;50.986;4.354;2022-07-29T07:33:11;30.80;90.40
25138;DHT22;13112;50.986;4.354;2022-07-29T07:35:36;31.00;89.30
25138;DHT22;13112;50.986;4.354;2022-07-29T07:38:02;31.20;89.10
25138;DHT22;13112;50.986;4.354;2022-07-29T07:40:28;32.10;88.30
25138;DHT22;13112;50.986;4.354;2022-07-29T07:42:53;32.50;85.50
25138;DHT22;13112;50.986;4.354;2022-07-29T07:45:19;33.00;84.70
25138;DHT22;13112;50.986;4.354;2022-07-29T07:47:45;33.30;83.60
25138;DHT22;13112;50.986;4.354;2022-07-29T07:50:11;33.40;82.20
25138;DHT22;13112;50.986;4.354;2022-07-29T07:52:56;34.20;80.70
25138;DHT22;13112;50.986;4.354;2022-07-29T07:55:27;35.00;79.20
25138;DHT22;13112;50.986;4.354;2022-07-29T07:57:53;35.20;78.10
25138;DHT22;13112;50.986;4.354;2022-07-29T08:00:20;34.90;77.10
25138;DHT22;13112;50.986;4.354;2022-07-29T08:02:46;35.00;76.20
25138;DHT22;13112;50.986;4.354;2022-07-29T08:05:12;35.30;75.60
25138;DHT22;13112;50.986;4.354;2022-07-29T08:07:43;35.50;75.50
25138;DHT22;13112;50.986;4.354;2022-07-29T08:10:09;35.70;74.10
25138;DHT22;13112;50.986;4.354;2022-07-29T08:12:34;35.90;73.00
25138;DHT22;13112;50.986;4.354;2022-07-29T08:15:00;36.10;72.50
25138;DHT22;13112;50.986;4.354;2022-07-29T08:17:26;36.10;71.80
25138;DHT22;13112;50.986;4.354;2022-07-29T08:19:52;35.70;71.70
25138;DHT22;13112;50.986;4.354;2022-07-29T08:22:18;36.20;70.00
25138;DHT22;13112;50.986;4.354;2022-07-29T08:24:43;36.50;70.30
25138;DHT22;13112;50.986;4.354;2022-07-29T08:27:10;37.10;69.90
25138;DHT22;13112;50.986;4.354;2022-07-29T08:29:37;37.20;68.60
25138;DHT22;13112;50.986;4.354;2022-07-29T08:32:03;37.00;67.60
25138;DHT22;13112;50.986;4.354;2022-07-29T08:34:29;37.20;67.70
25138;DHT22;13112;50.986;4.354;2022-07-29T08:36:56;37.40;66.80
25138;DHT22;13112;50.986;4.354;2022-07-29T08:39:22;37.40;66.90
25138;DHT22;13112;50.986;4.354;2022-07-29T08:41:48;36.70;66.10
25138;DHT22;13112;50.986;4.354;2022-07-29T08:44:19;37.20;66.50
25138;DHT22;13112;50.986;4.354;2022-07-29T08:46:45;37.40;65.70
25138;DHT22;13112;50.986;4.354;2022-07-29T08:49:11;37.60;65.20
25138;DHT22;13112;50.986;4.354;2022-07-29T08:51:39;37.70;64.80
25138;DHT22;13112;50.986;4.354;2022-07-29T08:54:05;37.80;64.80
25138;DHT22;13112;50.986;4.354;2022-07-29T08:56:32;37.70;64.90
25138;DHT22;13112;50.986;4.354;2022-07-29T08:58:59;38.20;63.30
25138;DHT22;13112;50.986;4.354;2022-07-29T09:01:29;37.80;64.60
25138;DHT22;13112;50.986;4.354;2022-07-29T09:03:59;38.40;62.60
25138;DHT22;13112;50.986;4.354;2022-07-29T09:06:31;38.90;62.60
25138;DHT22;13112;50.986;4.354;2022-07-29T09:08:59;39.40;61.40
25138;DHT22;13112;50.986;4.354;2022-07-29T09:11:25;39.00;61.50
25138;DHT22;13112;50.986;4.354;2022-07-29T09:13:50;39.00;60.30
25138;DHT22;13112;50.986;4.354;2022-07-29T09:16:16;38.80;60.50
25138;DHT22;13112;50.986;4.354;2022-07-29T09:18:44;38.90;59.40
25138;DHT22;13112;50.986;4.354;2022-07-29T09:21:12;38.40;59.90
25138;DHT22;13112;50.986;4.354;2022-07-29T09:24:02;38.40;60.10
25138;DHT22;13112;50.986;4.354;2022-07-29T09:26:32;38.00;59.60
25138;DHT22;13112;50.986;4.354;2022-07-29T09:28:58;38.20;59.50
25138;DHT22;13112;50.986;4.354;2022-07-29T09:31:36;38.40;57.60
25138;DHT22;13112;50.986;4.354;2022-07-29T09:34:03;38.90;57.70
25138;DHT22;13112;50.986;4.354;2022-07-29T09:36:29;39.10;57.60
25138;DHT22;13112;50.986;4.354;2022-07-29T09:39:02;39.40;57.00
25138;DHT22;13112;50.986;4.354;2022-07-29T09:41:29;39.80;56.60
25138;DHT22;13112;50.986;4.354;2022-07-29T09:43:58;40.00;55.80
25138;DHT22;13112;50.986;4.354;2022-07-29T09:46:25;40.30;55.60
25138;DHT22;13112;50.986;4.354;2022-07-29T09:49:08;40.40;54.30
25138;DHT22;13112;50.986;4.354;2022-07-29T09:51:36;40.70;54.80
25138;DHT22;13112;50.986;4.354;2022-07-29T09:54:21;41.40;54.10
25138;DHT22;13112;50.986;4.354;2022-07-29T09:56:47;42.40;52.70
25138;DHT22;13112;50.986;4.354;2022-07-29T09:59:13;43.20;51.60
25138;DHT22;13112;50.986;4.354;2022-07-29T10:01:39;43.60;50.50
25138;DHT22;13112;50.986;4.354;2022-07-29T10:04:05;43.50;49.20
25138;DHT22;13112;50.986;4.354;2022-07-29T10:06:31;42.40;50.00
25138;DHT22;13112;50.986;4.354;2022-07-29T10:09:10;42.50;50.30
25138;DHT22;13112;50.986;4.354;2022-07-29T10:11:36;41.70;50.60
25138;DHT22;13112;50.986;4.354;2022-07-29T10:14:03;41.60;50.50
25138;DHT22;13112;50.986;4.354;2022-07-29T10:16:30;41.30;51.10
25138;DHT22;13112;50.986;4.354;2022-07-29T10:19:01;40.90;50.80
25138;DHT22;13112;50.986;4.354;2022-07-29T10:21:27;40.80;51.00
25138;DHT22;13112;50.986;4.354;2022-07-29T10:23:53;40.10;50.80
25138;DHT22;13112;50.986;4.354;2022-07-29T10:26:19;39.10;52.00
25138;DHT22;13112;50.986;4.354;2022-07-29T10:28:45;38.50;52.50
25138;DHT22;13112;50.986;4.354;2022-07-29T10:31:28;38.50;53.20
25138;DHT22;13112;50.986;4.354;2022-07-29T10:36:53;39.90;52.00
25138;DHT22;13112;50.986;4.354;2022-07-29T10:44:38;42.30;49.60
25138;DHT22;13112;50.986;4.354;2022-07-29T10:47:04;42.80;48.70
25138;DHT22;13112;50.986;4.354;2022-07-29T10:49:31;42.80;47.70
25138;DHT22;13112;50.986;4.354;2022-07-29T10:52:06;42.50;48.40
25138;DHT22;13112;50.986;4.354;2022-07-29T11:05:11;42.80;46.60
25138;DHT22;13112;50.986;4.354;2022-07-29T11:07:40;43.10;46.50
25138;DHT22;13112;50.986;4.354;2022-07-29T11:15:10;43.00;45.40
25138;DHT22;13112;50.986;4.354;2022-07-29T11:29:11;43.80;43.40
25138;DHT22;13112;50.986;4.354;2022-07-29T11:31:41;43.80;44.50
25138;DHT22;13112;50.986;4.354;2022-07-29T11:39:46;43.20;43.10
25138;DHT22;13112;50.986;4.354;2022-07-29T11:44:58;42.40;43.30
25138;DHT22;13112;50.986;4.354;2022-07-29T11:47:26;42.70;43.30
25138;DHT22;13112;50.986;4.354;2022-07-29T11:49:54;42.40;43.50
25138;DHT22;13112;50.986;4.354;2022-07-29T11:52:20;42.60;43.70
25138;DHT22;13112;50.986;4.354;2022-07-29T11:54:50;42.60;43.20
25138;DHT22;13112;50.986;4.354;2022-07-29T11:57:17;42.60;43.10
25138;DHT22;13112;50.986;4.354;2022-07-29T11:59:45;42.30;43.70
25138;DHT22;13112;50.986;4.354;2022-07-29T12:02:11;42.60;43.20
25138;DHT22;13112;50.986;4.354;2022-07-29T12:04:59;42.80;43.50
25138;DHT22;13112;50.986;4.354;2022-07-29T12:07:31;43.30;42.30
25138;DHT22;13112;50.986;4.354;2022-07-29T12:09:58;44.00;42.40
25138;DHT22;13112;50.986;4.354;2022-07-29T12:12:24;44.60;41.60
25138;DHT22;13112;50.986;4.354;2022-07-29T12:14:49;44.70;41.20
25138;DHT22;13112;50.986;4.354;2022-07-29T12:17:32;44.30;41.70
25138;DHT22;13112;50.986;4.354;2022-07-29T12:20:02;44.10;42.00
25138;DHT22;13112;50.986;4.354;2022-07-29T12:22:31;44.00;41.50
25138;DHT22;13112;50.986;4.354;2022-07-29T12:25:02;43.50;41.50
25138;DHT22;13112;50.986;4.354;2022-07-29T12:27:28;43.10;42.50
25138;DHT22;13112;50.986;4.354;2022-07-29T12:30:01;43.20;42.00
25138;DHT22;13112;50.986;4.354;2022-07-29T12:32:38;43.60;40.80
25138;DHT22;13112;50.986;4.354;2022-07-29T12:35:10;44.10;41.00
25138;DHT22;13112;50.986;4.354;2022-07-29T12:37:39;44.30;40.00
25138;DHT22;13112;50.986;4.354;2022-07-29T12:40:07;44.50;39.80
25138;DHT22;13112;50.986;4.354;2022-07-29T12:42:33;44.00;40.60
25138;DHT22;13112;50.986;4.354;2022-07-29T12:45:00;43.70;40.70
25138;DHT22;13112;50.986;4.354;2022-07-29T12:47:27;43.70;40.60
25138;DHT22;13112;50.986;4.354;2022-07-29T12:50:11;43.30;40.30
25138;DHT22;13112;50.986;4.354;2022-07-29T12:52:39;41.80;41.60
25138;DHT22;13112;50.986;4.354;2022-07-29T12:55:05;40.20;43.20
25138;DHT22;13112;50.986;4.354;2022-07-29T12:57:32;38.70;44.70
25138;DHT22;13112;50.986;4.354;2022-07-29T13:00:11;39.00;45.00
25138;DHT22;13112;50.986;4.354;2022-07-29T13:02:38;39.60;44.30
25138;DHT22;13112;50.986;4.354;2022-07-29T13:05:06;39.70;43.40
25138;DHT22;13112;50.986;4.354;2022-07-29T13:07:33;39.90;43.30
25138;DHT22;13112;50.986;4.354;2022-07-29T13:15:24;40.60;43.10
25138;DHT22;13112;50.986;4.354;2022-07-29T13:17:49;40.50;42.80
25138;DHT22;13112;50.986;4.354;2022-07-29T13:20:15;39.10;43.80
25138;DHT22;13112;50.986;4.354;2022-07-29T13:22:42;38.30;45.40
25138;DHT22;13112;50.986;4.354;2022-07-29T13:25:09;38.10;45.30
25138;DHT22;13112;50.986;4.354;2022-07-29T13:27:37;37.80;44.80
25138;DHT22;13112;50.986;4.354;2022-07-29T13:30:08;37.50;45.60
25138;DHT22;13112;50.986;4.354;2022-07-29T13:32:34;36.50;47.10
25138;DHT22;13112;50.986;4.354;2022-07-29T13:35:04;35.10;48.10
25138;DHT22;13112;50.986;4.354;2022-07-29T13:37:30;34.20;50.00
25138;DHT22;13112;50.986;4.354;2022-07-29T13:39:59;33.80;51.50
25138;DHT22;13112;50.986;4.354;2022-07-29T13:42:26;33.90;51.40
25138;DHT22;13112;50.986;4.354;2022-07-29T13:44:52;34.50;50.10
25138;DHT22;13112;50.986;4.354;2022-07-29T13:47:21;35.70;49.40
25138;DHT22;13112;50.986;4.354;2022-07-29T13:49:48;37.00;47.70
25138;DHT22;13112;50.986;4.354;2022-07-29T13:52:13;37.60;46.80
25138;DHT22;13112;50.986;4.354;2022-07-29T13:54:39;37.90;45.70
25138;DHT22;13112;50.986;4.354;2022-07-29T13:57:05;38.10;45.50
25138;DHT22;13112;50.986;4.354;2022-07-29T13:59:31;37.60;45.90
25138;DHT22;13112;50.986;4.354;2022-07-29T14:01:57;38.30;45.50
25138;DHT22;13112;50.986;4.354;2022-07-29T14:04:22;37.20;46.20
25138;DHT22;13112;50.986;4.354;2022-07-29T14:06:49;36.70;47.90
25138;DHT22;13112;50.986;4.354;2022-07-29T14:09:15;37.70;46.10
25138;DHT22;13112;50.986;4.354;2022-07-29T14:11:41;39.40;45.00
25138;DHT22;13112;50.986;4.354;2022-07-29T14:14:07;40.00;43.50
25138;DHT22;13112;50.986;4.354;2022-07-29T14:16:33;38.80;43.70
25138;DHT22;13112;50.986;4.354;2022-07-29T14:18:59;37.30;46.00
25138;DHT22;13112;50.986;4.354;2022-07-29T14:21:25;36.10;47.00
25138;DHT22;13112;50.986;4.354;2022-07-29T14:23:50;35.30;48.60
25138;DHT22;13112;50.986;4.354;2022-07-29T14:26:17;35.00;49.80
25138;DHT22;13112;50.986;4.354;2022-07-29T14:28:43;34.40;50.10
25138;DHT22;13112;50.986;4.354;2022-07-29T14:31:09;33.90;50.90
25138;DHT22;13112;50.986;4.354;2022-07-29T14:33:35;33.60;52.20
25138;DHT22;13112;50.986;4.354;2022-07-29T14:36:01;33.30;52.20
25138;DHT22;13112;50.986;4.354;2022-07-29T14:38:27;32.80;53.00
25138;DHT22;13112;50.986;4.354;2022-07-29T14:40:52;32.30;53.90
25138;DHT22;13112;50.986;4.354;2022-07-29T14:43:18;32.30;53.90
25138;DHT22;13112;50.986;4.354;2022-07-29T14:45:44;32.20;54.80
25138;DHT22;13112;50.986;4.354;2022-07-29T14:48:09;32.00;55.00
25138;DHT22;13112;50.986;4.354;2022-07-29T14:50:37;31.90;55.40
25138;DHT22;13112;50.986;4.354;2022-07-29T14:53:02;31.70;54.40
25138;DHT22;13112;50.986;4.354;2022-07-29T14:55:28;31.50;54.80
25138;DHT22;13112;50.986;4.354;2022-07-29T14:57:54;31.60;54.80
25138;DHT22;13112;50.986;4.354;2022-07-29T15:00:20;31.40;54.30
25138;DHT22;13112;50.986;4.354;2022-07-29T15:02:47;31.20;54.80
25138;DHT22;13112;50.986;4.354;2022-07-29T15:05:12;31.20;55.70
25138;DHT22;13112;50.986;4.354;2022-07-29T15:07:38;31.20;55.20
25138;DHT22;13112;50.986;4.354;2022-07-29T15:10:04;31.30;56.50
25138;DHT22;13112;50.986;4.354;2022-07-29T15:12:31;31.40;55.50
25138;DHT22;13112;50.986;4.354;2022-07-29T15:14:57;31.30;55.50
25138;DHT22;13112;50.986;4.354;2022-07-29T15:17:22;31.10;55.90
25138;DHT22;13112;50.986;4.354;2022-07-29T15:19:48;31.00;55.00
25138;DHT22;13112;50.986;4.354;2022-07-29T15:22:14;30.70;55.10
25138;DHT22;13112;50.986;4.354;2022-07-29T15:24:39;30.60;55.60
25138;DHT22;13112;50.986;4.354;2022-07-29T15:27:05;30.60;55.60
25138;DHT22;13112;50.986;4.354;2022-07-29T15:29:31;30.50;55.80
25138;DHT22;13112;50.986;4.354;2022-07-29T15:31:56;30.50;56.90
25138;DHT22;13112;50.986;4.354;2022-07-29T15:34:22;30.80;56.00
25138;DHT22;13112;50.986;4.354;2022-07-29T15:36:51;30.80;56.60
25138;DHT22;13112;50.986;4.354;2022-07-29T15:39:17;30.90;55.20
25138;DHT22;13112;50.986;4.354;2022-07-29T15:41:43;31.00;54.50
25138;DHT22;13112;50.986;4.354;2022-07-29T15:44:08;31.00;55.10
25138;DHT22;13112;50.986;4.354;2022-07-29T15:46:34;30.90;55.60
25138;DHT22;13112;50.986;4.354;2022-07-29T15:49:18;30.80;56.10
25138;DHT22;13112;50.986;4.354;2022-07-29T15:51:43;30.80;56.20
25138;DHT22;13112;50.986;4.354;2022-07-29T15:54:09;30.50;56.90
25138;DHT22;13112;50.986;4.354;2022-07-29T15:56:35;30.60;56.60
25138;DHT22;13112;50.986;4.354;2022-07-29T15:59:00;30.40;56.80
25138;DHT22;13112;50.986;4.354;2022-07-29T16:01:26;30.40;57.00
25138;DHT22;13112;50.986;4.354;2022-07-29T16:03:52;30.20;57.50
25138;DHT22;13112;50.986;4.354;2022-07-29T16:06:18;30.10;57.50
25138;DHT22;13112;50.986;4.354;2022-07-29T16:08:43;29.90;57.70
25138;DHT22;13112;50.986;4.354;2022-07-29T16:11:09;29.60;57.90
25138;DHT22;13112;50.986;4.354;2022-07-29T16:13:35;29.50;58.20
25138;DHT22;13112;50.986;4.354;2022-07-29T16:16:00;29.30;58.90
25138;DHT22;13112;50.986;4.354;2022-07-29T16:18:26;29.40;58.30
25138;DHT22;13112;50.986;4.354;2022-07-29T16:20:52;29.30;58.70
25138;DHT22;13112;50.986;4.354;2022-07-29T16:23:17;29.40;59.00
25138;DHT22;13112;50.986;4.354;2022-07-29T16:25:43;29.30;59.10